createdAt,value
2018-06-04T00:00:26.989Z,0.00
2018-06-04T00:01:26.922Z,0.00
2018-06-04T00:02:26.845Z,0.00
2018-06-04T00:03:26.777Z,0.00
2018-06-04T00:04:26.710Z,0.00
2018-06-04T00:05:26.644Z,0.00
2018-06-04T00:06:26.563Z,0.00
2018-06-04T00:07:26.492Z,0.00
2018-06-04T00:08:26.426Z,0.00
2018-06-04T00:09:26.353Z,0.00
2018-06-04T00:10:26.279Z,0.00
2018-06-04T00:11:26.208Z,0.00
2018-06-04T00:12:26.137Z,0.00
2018-06-04T00:13:26.065Z,0.00
2018-06-04T00:14:25.996Z,0.00
2018-06-04T00:15:25.925Z,0.00
2018-06-04T00:16:25.852Z,0.00
2018-06-04T00:17:25.782Z,0.00
2018-06-04T00:18:25.709Z,0.00
2018-06-04T00:19:25.650Z,0.00
2018-06-04T00:20:25.567Z,0.00
2018-06-04T00:21:25.499Z,0.00
2018-06-04T00:22:25.426Z,0.00
2018-06-04T00:23:25.356Z,0.00
2018-06-04T00:24:25.281Z,0.00
2018-06-04T00:25:25.213Z,0.00
2018-06-04T00:26:25.140Z,0.00
2018-06-04T00:27:25.069Z,0.00
2018-06-04T00:28:24.997Z,0.00
2018-06-04T00:29:24.932Z,0.00
2018-06-04T00:30:24.860Z,0.00
2018-06-04T00:31:24.785Z,0.00
2018-06-04T00:32:24.714Z,0.00
2018-06-04T00:33:24.645Z,0.00
2018-06-04T00:34:24.572Z,0.00
2018-06-04T00:35:24.501Z,0.00
2018-06-04T00:36:24.427Z,0.00
2018-06-04T00:37:24.356Z,0.00
2018-06-04T00:38:24.290Z,0.00
2018-06-04T00:39:24.213Z,0.00
2018-06-04T00:40:24.148Z,0.00
2018-06-04T00:41:24.071Z,0.00
2018-06-04T00:42:24.002Z,0.00
2018-06-04T00:43:23.929Z,0.00
2018-06-04T00:44:23.855Z,0.00
2018-06-04T00:45:23.790Z,0.00
2018-06-04T00:46:23.714Z,0.00
2018-06-04T00:47:23.646Z,0.00
2018-06-04T00:48:23.573Z,0.00
2018-06-04T00:49:23.514Z,0.00
2018-06-04T00:50:23.428Z,0.00
2018-06-04T00:51:23.359Z,0.00
2018-06-04T00:52:23.291Z,0.00
2018-06-04T00:53:23.212Z,0.00
2018-06-04T00:54:23.142Z,0.00
2018-06-04T00:55:23.072Z,0.00
2018-06-04T00:56:23.000Z,0.00
2018-06-04T00:57:22.926Z,0.00
2018-06-04T00:58:22.857Z,0.00
2018-06-04T00:59:22.785Z,0.00
2018-06-04T01:00:22.721Z,0.00
2018-06-04T01:01:22.647Z,0.00
2018-06-04T01:02:22.570Z,0.00
2018-06-04T01:03:22.499Z,0.00
2018-06-04T01:04:22.436Z,0.00
2018-06-04T01:05:22.360Z,0.00
2018-06-04T01:06:22.281Z,0.00
2018-06-04T01:07:22.210Z,0.00
2018-06-04T01:08:22.138Z,0.00
2018-06-04T01:09:22.066Z,0.00
2018-06-04T01:10:21.995Z,0.00
2018-06-04T01:11:21.926Z,0.00
2018-06-04T01:12:21.854Z,0.00
2018-06-04T01:13:21.787Z,0.00
2018-06-04T01:14:21.726Z,0.00
2018-06-04T01:15:21.635Z,0.00
2018-06-04T01:16:21.564Z,0.00
2018-06-04T01:17:21.499Z,0.00
2018-06-04T01:18:21.420Z,0.00
2018-06-04T01:19:21.346Z,0.00
2018-06-04T01:20:21.273Z,0.00
2018-06-04T01:21:21.200Z,0.00
2018-06-04T01:22:21.132Z,0.00
2018-06-04T01:23:21.058Z,0.00
2018-06-04T01:24:20.984Z,0.00
2018-06-04T01:25:20.916Z,0.00
2018-06-04T01:26:20.850Z,0.00
2018-06-04T01:27:20.819Z,0.00
2018-06-04T01:28:20.695Z,0.00
2018-06-04T01:29:20.633Z,0.00
2018-06-04T01:30:20.555Z,0.00
2018-06-04T01:31:20.481Z,0.00
2018-06-04T01:32:20.406Z,0.00
2018-06-04T01:33:20.336Z,0.00
2018-06-04T01:34:20.263Z,0.00
2018-06-04T01:35:20.195Z,0.00
2018-06-04T01:36:20.118Z,0.00
2018-06-04T01:37:20.045Z,0.00
2018-06-04T01:38:19.973Z,0.00
2018-06-04T01:39:19.900Z,0.00
2018-06-04T01:40:19.827Z,0.00
2018-06-04T01:41:19.754Z,0.00
2018-06-04T01:42:19.692Z,0.00
2018-06-04T01:43:19.613Z,0.00
2018-06-04T01:44:19.537Z,0.00
2018-06-04T01:45:19.465Z,0.00
2018-06-04T01:46:19.403Z,0.00
2018-06-04T01:47:19.323Z,0.00
2018-06-04T01:48:19.257Z,0.00
2018-06-04T01:49:19.176Z,0.00
2018-06-04T01:50:19.110Z,0.00
2018-06-04T01:51:19.046Z,0.00
2018-06-04T01:52:18.959Z,0.00
2018-06-04T01:53:18.887Z,0.00
2018-06-04T01:54:18.816Z,0.00
2018-06-04T01:55:18.745Z,0.00
2018-06-04T01:56:18.671Z,0.00
2018-06-04T01:57:18.604Z,0.00
2018-06-04T01:58:18.525Z,0.00
2018-06-04T01:59:18.453Z,0.00
2018-06-04T02:00:18.381Z,0.00
2018-06-04T02:01:18.306Z,0.00
2018-06-04T02:02:18.234Z,0.00
2018-06-04T02:03:18.163Z,0.00
2018-06-04T02:04:18.087Z,0.00
2018-06-04T02:05:18.014Z,0.00
2018-06-04T02:06:17.944Z,0.00
2018-06-04T02:07:17.873Z,0.00
2018-06-04T02:08:17.798Z,0.00
2018-06-04T02:09:17.727Z,0.00
2018-06-04T02:10:17.654Z,0.00
2018-06-04T02:11:17.580Z,0.00
2018-06-04T02:12:17.509Z,0.00
2018-06-04T02:13:17.433Z,0.00
2018-06-04T02:14:17.362Z,0.00
2018-06-04T02:15:17.289Z,0.00
2018-06-04T02:16:17.219Z,0.00
2018-06-04T02:17:17.145Z,0.00
2018-06-04T02:18:17.070Z,0.00
2018-06-04T02:19:16.999Z,0.00
2018-06-04T02:20:16.926Z,0.00
2018-06-04T02:21:16.851Z,0.00
2018-06-04T02:22:16.780Z,0.00
2018-06-04T02:23:16.709Z,0.00
2018-06-04T02:24:16.638Z,0.00
2018-06-04T02:25:16.564Z,0.00
2018-06-04T02:26:16.489Z,0.00
2018-06-04T02:27:16.418Z,0.00
2018-06-04T02:28:16.363Z,0.00
2018-06-04T02:29:16.273Z,0.00
2018-06-04T02:30:16.199Z,0.00
2018-06-04T02:31:16.126Z,0.00
2018-06-04T02:32:16.052Z,0.00
2018-06-04T02:33:15.989Z,0.00
2018-06-04T02:34:15.912Z,0.00
2018-06-04T02:35:15.836Z,0.00
2018-06-04T02:36:15.768Z,0.00
2018-06-04T02:37:15.690Z,4.00
2018-06-04T02:38:15.619Z,4.00
2018-06-04T02:39:15.544Z,0.00
2018-06-04T02:40:15.469Z,0.00
2018-06-04T02:41:15.400Z,4.00
2018-06-04T02:42:15.334Z,4.00
2018-06-04T02:43:15.252Z,4.00
2018-06-04T02:44:15.181Z,4.00
2018-06-04T02:45:15.106Z,4.00
2018-06-04T02:46:15.041Z,4.00
2018-06-04T02:47:14.963Z,4.00
2018-06-04T02:48:14.889Z,4.00
2018-06-04T02:49:14.817Z,8.00
2018-06-04T02:50:14.836Z,12.00
2018-06-04T02:51:14.678Z,12.00
2018-06-04T02:52:14.598Z,12.00
2018-06-04T02:53:14.526Z,16.00
2018-06-04T02:54:14.450Z,16.00
2018-06-04T02:55:14.382Z,20.00
2018-06-04T02:56:14.304Z,24.00
2018-06-04T02:57:14.232Z,24.00
2018-06-04T02:58:14.161Z,28.00
2018-06-04T02:59:14.088Z,32.00
2018-06-04T03:00:14.012Z,32.00
2018-06-04T03:01:13.940Z,40.00
2018-06-04T03:02:13.866Z,44.00
2018-06-04T03:03:13.792Z,48.00
2018-06-04T03:04:13.728Z,56.00
2018-06-04T03:05:13.651Z,60.00
2018-06-04T03:06:13.577Z,64.00
2018-06-04T03:07:13.500Z,76.00
2018-06-04T03:08:13.439Z,80.00
2018-06-04T03:09:13.355Z,92.00
2018-06-04T03:10:13.286Z,100.00
2018-06-04T03:11:13.209Z,108.00
2018-06-04T03:12:13.136Z,116.00
2018-06-04T03:13:13.063Z,124.00
2018-06-04T03:14:12.992Z,136.00
2018-06-04T03:15:12.919Z,144.00
2018-06-04T03:16:12.846Z,156.00
2018-06-04T03:17:12.772Z,172.00
2018-06-04T03:18:12.698Z,184.00
2018-06-04T03:19:12.625Z,192.00
2018-06-04T03:20:12.551Z,204.00
2018-06-04T03:21:12.479Z,220.00
2018-06-04T03:22:12.406Z,232.00
2018-06-04T03:23:12.338Z,244.00
2018-06-04T03:24:12.257Z,256.00
2018-06-04T03:25:12.209Z,272.00
2018-06-04T03:26:12.112Z,288.00
2018-06-04T03:27:12.041Z,300.00
2018-06-04T03:28:11.966Z,316.00
2018-06-04T03:29:11.896Z,332.00
2018-06-04T03:30:11.820Z,348.00
2018-06-04T03:31:11.749Z,364.00
2018-06-04T03:32:11.674Z,376.00
2018-06-04T03:33:11.600Z,392.00
2018-06-04T03:34:11.528Z,408.00
2018-06-04T03:35:11.454Z,424.00
2018-06-04T03:36:11.380Z,440.00
2018-06-04T03:37:11.309Z,456.00
2018-06-04T03:38:11.237Z,472.00
2018-06-04T03:39:11.168Z,488.00
2018-06-04T03:40:11.091Z,504.00
2018-06-04T03:41:11.018Z,524.00
2018-06-04T03:42:10.944Z,540.00
2018-06-04T03:43:10.908Z,556.00
2018-06-04T03:44:10.797Z,576.00
2018-06-04T03:45:10.725Z,596.00
2018-06-04T03:46:10.657Z,616.00
2018-06-04T03:47:10.579Z,632.00
2018-06-04T03:48:10.510Z,656.00
2018-06-04T03:49:10.430Z,676.00
2018-06-04T03:50:10.362Z,700.00
2018-06-04T03:51:10.287Z,716.00
2018-06-04T03:52:10.212Z,740.00
2018-06-04T03:53:10.191Z,760.00
2018-06-04T03:54:10.071Z,784.00
2018-06-04T03:55:09.999Z,800.00
2018-06-04T03:56:09.919Z,824.00
2018-06-04T03:57:09.847Z,848.00
2018-06-04T03:58:09.775Z,868.00
2018-06-04T03:59:09.701Z,892.00
2018-06-04T04:00:09.629Z,912.00
2018-06-04T04:01:09.564Z,932.00
2018-06-04T04:02:09.481Z,956.00
2018-06-04T04:03:09.411Z,976.00
2018-06-04T04:04:09.344Z,996.00
2018-06-04T04:05:09.272Z,1016.00
2018-06-04T04:06:09.190Z,1040.00
2018-06-04T04:07:09.123Z,1060.00
2018-06-04T04:08:09.053Z,1084.00
2018-06-04T04:09:08.974Z,1100.00
2018-06-04T04:10:08.900Z,1124.00
2018-06-04T04:11:08.827Z,1144.00
2018-06-04T04:12:08.753Z,1164.00
2018-06-04T04:13:08.690Z,1184.00
2018-06-04T04:14:08.608Z,1204.00
2018-06-04T04:15:08.534Z,1228.00
2018-06-04T04:16:08.461Z,1248.00
2018-06-04T04:17:08.389Z,1272.00
2018-06-04T04:18:08.322Z,1292.00
2018-06-04T04:19:08.244Z,1316.00
2018-06-04T04:20:08.175Z,1348.00
2018-06-04T04:21:08.098Z,1380.00
2018-06-04T04:22:08.035Z,1412.00
2018-06-04T04:23:07.969Z,1440.00
2018-06-04T04:24:07.882Z,1464.00
2018-06-04T04:25:07.814Z,1484.00
2018-06-04T04:26:07.736Z,1516.00
2018-06-04T04:27:07.664Z,1552.00
2018-06-04T04:28:07.593Z,1588.00
2018-06-04T04:29:07.520Z,1616.00
2018-06-04T04:30:07.447Z,1644.00
2018-06-04T04:31:07.381Z,1664.00
2018-06-04T04:32:07.300Z,1676.00
2018-06-04T04:33:07.228Z,1680.00
2018-06-04T04:34:07.156Z,1692.00
2018-06-04T04:35:07.088Z,1700.00
2018-06-04T04:36:07.010Z,1708.00
2018-06-04T04:37:06.940Z,1712.00
2018-06-04T04:38:06.865Z,1716.00
2018-06-04T04:39:06.793Z,1728.00
2018-06-04T04:40:06.727Z,1740.00
2018-06-04T04:41:06.649Z,1752.00
2018-06-04T04:42:06.576Z,1768.00
2018-06-04T04:43:06.506Z,1780.00
2018-06-04T04:44:06.429Z,1796.00
2018-06-04T04:45:06.357Z,1812.00
2018-06-04T04:46:06.284Z,1824.00
2018-06-04T04:47:06.214Z,1840.00
2018-06-04T04:48:06.144Z,1856.00
2018-06-04T04:49:06.069Z,1872.00
2018-06-04T04:50:05.996Z,1888.00
2018-06-04T04:51:05.924Z,1900.00
2018-06-04T04:52:05.853Z,1916.00
2018-06-04T04:53:05.784Z,1932.00
2018-06-04T04:54:05.710Z,1948.00
2018-06-04T04:55:05.636Z,1960.00
2018-06-04T04:56:05.562Z,1976.00
2018-06-04T04:57:05.491Z,1992.00
2018-06-04T04:58:05.420Z,2004.00
2018-06-04T04:59:05.346Z,2024.00
2018-06-04T05:00:05.273Z,2036.00
2018-06-04T05:01:05.203Z,2048.00
2018-06-04T05:02:05.134Z,2068.00
2018-06-04T05:03:05.059Z,2080.00
2018-06-04T05:04:04.984Z,2100.00
2018-06-04T05:05:04.918Z,2116.00
2018-06-04T05:06:04.868Z,2128.00
2018-06-04T05:07:04.772Z,2148.00
2018-06-04T05:08:04.698Z,2164.00
2018-06-04T05:09:04.627Z,2176.00
2018-06-04T05:10:04.554Z,2192.00
2018-06-04T05:11:04.488Z,2204.00
2018-06-04T05:12:04.407Z,2220.00
2018-06-04T05:13:04.335Z,2236.00
2018-06-04T05:14:04.264Z,2248.00
2018-06-04T05:15:04.193Z,2264.00
2018-06-04T05:16:04.120Z,2276.00
2018-06-04T05:17:04.047Z,2284.00
2018-06-04T05:18:03.976Z,2296.00
2018-06-04T05:19:03.906Z,2312.00
2018-06-04T05:20:03.831Z,2316.00
2018-06-04T05:21:03.763Z,2328.00
2018-06-04T05:22:03.686Z,2336.00
2018-06-04T05:23:03.616Z,2348.00
2018-06-04T05:24:03.546Z,2352.00
2018-06-04T05:25:03.478Z,2364.00
2018-06-04T05:26:03.398Z,2372.00
2018-06-04T05:27:03.336Z,2380.00
2018-06-04T05:28:03.255Z,2388.00
2018-06-04T05:29:03.188Z,2396.00
2018-06-04T05:30:03.111Z,2408.00
2018-06-04T05:31:03.058Z,2416.00
2018-06-04T05:32:02.966Z,2428.00
2018-06-04T05:33:02.901Z,2436.00
2018-06-04T05:34:02.823Z,2448.00
2018-06-04T05:35:02.751Z,2456.00
2018-06-04T05:36:02.680Z,2464.00
2018-06-04T05:37:02.641Z,2476.00
2018-06-04T05:38:02.535Z,2484.00
2018-06-04T05:39:02.468Z,2496.00
2018-06-04T05:40:02.392Z,2504.00
2018-06-04T05:41:02.337Z,2516.00
2018-06-04T05:42:02.294Z,2520.00
2018-06-04T05:43:02.710Z,2532.00
2018-06-04T05:44:02.104Z,2536.00
2018-06-04T05:45:02.033Z,2548.00
2018-06-04T05:46:01.964Z,2556.00
2018-06-04T05:47:01.891Z,2564.00
2018-06-04T05:48:01.819Z,2572.00
2018-06-04T05:49:01.747Z,2576.00
2018-06-04T05:50:01.735Z,2580.00
2018-06-04T05:51:01.605Z,2588.00
2018-06-04T05:52:01.535Z,2592.00
2018-06-04T05:53:01.460Z,2604.00
2018-06-04T05:54:01.395Z,2612.00
2018-06-04T05:55:01.320Z,2608.00
2018-06-04T05:56:01.257Z,2620.00
2018-06-04T05:57:01.176Z,2620.00
2018-06-04T05:58:01.103Z,2624.00
2018-06-04T05:59:01.033Z,2624.00
2018-06-04T06:00:00.960Z,2624.00
2018-06-04T06:01:00.890Z,2628.00
2018-06-04T06:02:00.818Z,2636.00
2018-06-04T06:03:00.752Z,2640.00
2018-06-04T06:04:00.677Z,2640.00
2018-06-04T06:05:00.607Z,2644.00
2018-06-04T06:06:00.549Z,2648.00
2018-06-04T06:07:00.467Z,2656.00
2018-06-04T06:08:00.390Z,2656.00
2018-06-04T06:09:00.318Z,2668.00
2018-06-04T06:10:00.250Z,2672.00
2018-06-04T06:11:00.188Z,2680.00
2018-06-04T06:12:00.106Z,2684.00
2018-06-04T06:13:00.036Z,2684.00
2018-06-04T06:13:59.967Z,2688.00
2018-06-04T06:14:59.891Z,2688.00
2018-06-04T06:15:59.862Z,2692.00
2018-06-04T06:16:59.751Z,2696.00
2018-06-04T06:17:59.680Z,2696.00
2018-06-04T06:18:59.609Z,2700.00
2018-06-04T06:19:59.535Z,2704.00
2018-06-04T06:20:59.467Z,2708.00
2018-06-04T06:21:59.395Z,2716.00
2018-06-04T06:22:59.326Z,2716.00
2018-06-04T06:23:59.254Z,2724.00
2018-06-04T06:24:59.182Z,2728.00
2018-06-04T06:25:59.117Z,2736.00
2018-06-04T06:26:59.042Z,2740.00
2018-06-04T06:27:58.984Z,2740.00
2018-06-04T06:28:58.900Z,2744.00
2018-06-04T06:29:58.837Z,2744.00
2018-06-04T06:30:58.757Z,2748.00
2018-06-04T06:31:58.689Z,2752.00
2018-06-04T06:32:58.618Z,2756.00
2018-06-04T06:33:58.544Z,2756.00
2018-06-04T06:34:58.479Z,2756.00
2018-06-04T06:35:58.419Z,2764.00
2018-06-04T06:36:58.331Z,2760.00
2018-06-04T06:37:58.264Z,2764.00
2018-06-04T06:38:58.191Z,2768.00
2018-06-04T06:39:58.120Z,2772.00
2018-06-04T06:40:58.051Z,2776.00
2018-06-04T06:41:57.981Z,2776.00
2018-06-04T06:42:57.919Z,2784.00
2018-06-04T06:43:57.839Z,2788.00
2018-06-04T06:44:57.766Z,2792.00
2018-06-04T06:45:57.698Z,2792.00
2018-06-04T06:46:57.626Z,2796.00
2018-06-04T06:47:57.581Z,2804.00
2018-06-04T06:48:57.484Z,2812.00
2018-06-04T06:49:57.413Z,2808.00
2018-06-04T06:50:57.343Z,2812.00
2018-06-04T06:51:57.270Z,2812.00
2018-06-04T06:52:57.204Z,2812.00
2018-06-04T06:53:57.131Z,2820.00
2018-06-04T06:54:57.063Z,2816.00
2018-06-04T06:55:56.991Z,2820.00
2018-06-04T06:56:56.925Z,2828.00
2018-06-04T06:57:56.850Z,2828.00
2018-06-04T06:58:56.781Z,2832.00
2018-06-04T06:59:56.709Z,2836.00
2018-06-04T07:00:56.647Z,2840.00
2018-06-04T07:01:56.588Z,2840.00
2018-06-04T07:02:56.498Z,2844.00
2018-06-04T07:03:56.428Z,2848.00
2018-06-04T07:04:56.355Z,2848.00
2018-06-04T07:05:56.286Z,2848.00
2018-06-04T07:06:56.214Z,2852.00
2018-06-04T07:07:56.145Z,2852.00
2018-06-04T07:08:56.073Z,2852.00
2018-06-04T07:09:56.005Z,2852.00
2018-06-04T07:10:55.937Z,2852.00
2018-06-04T07:11:55.864Z,2860.00
2018-06-04T07:12:55.794Z,2860.00
2018-06-04T07:13:55.724Z,2844.00
2018-06-04T07:14:55.653Z,2868.00
2018-06-04T07:15:55.585Z,2872.00
2018-06-04T07:16:55.513Z,2868.00
2018-06-04T07:17:55.446Z,2868.00
2018-06-04T07:18:55.373Z,2876.00
2018-06-04T07:19:55.320Z,2884.00
2018-06-04T07:20:55.236Z,2884.00
2018-06-04T07:21:55.164Z,2888.00
2018-06-04T07:22:55.104Z,2892.00
2018-06-04T07:23:55.038Z,2892.00
2018-06-04T07:24:54.953Z,2892.00
2018-06-04T07:25:54.883Z,2892.00
2018-06-04T07:26:54.813Z,2896.00
2018-06-04T07:27:54.746Z,2896.00
2018-06-04T07:28:54.679Z,2904.00
2018-06-04T07:29:54.603Z,2904.00
2018-06-04T07:30:54.535Z,2912.00
2018-06-04T07:31:54.463Z,2916.00
2018-06-04T07:32:54.401Z,2920.00
2018-06-04T07:33:54.368Z,2920.00
2018-06-04T07:34:54.324Z,2920.00
2018-06-04T07:35:54.183Z,2924.00
2018-06-04T07:36:54.122Z,2928.00
2018-06-04T07:37:54.045Z,2936.00
2018-06-04T07:38:53.975Z,2936.00
2018-06-04T07:39:53.904Z,2944.00
2018-06-04T07:40:53.837Z,2944.00
2018-06-04T07:41:53.767Z,2948.00
2018-06-04T07:42:53.696Z,2952.00
2018-06-04T07:43:53.626Z,2948.00
2018-06-04T07:44:53.556Z,2948.00
2018-06-04T07:45:53.502Z,2948.00
2018-06-04T07:46:53.422Z,2948.00
2018-06-04T07:47:53.347Z,2944.00
2018-06-04T07:48:53.281Z,2952.00
2018-06-04T07:49:53.222Z,2948.00
2018-06-04T07:50:53.142Z,2952.00
2018-06-04T07:51:53.070Z,2956.00
2018-06-04T07:52:52.999Z,2956.00
2018-06-04T07:53:52.937Z,2956.00
2018-06-04T07:54:52.864Z,2948.00
2018-06-04T07:55:52.793Z,2948.00
2018-06-04T07:56:52.734Z,2948.00
2018-06-04T07:57:52.656Z,2948.00
2018-06-04T07:58:52.585Z,2956.00
2018-06-04T07:59:52.516Z,2960.00
2018-06-04T08:00:52.523Z,2952.00
2018-06-04T08:01:52.378Z,2952.00
2018-06-04T08:02:52.311Z,2952.00
2018-06-04T08:03:52.237Z,2960.00
2018-06-04T08:04:52.173Z,2964.00
2018-06-04T08:05:52.105Z,2956.00
2018-06-04T08:06:52.033Z,2944.00
2018-06-04T08:07:51.963Z,2964.00
2018-06-04T08:08:51.925Z,2972.00
2018-06-04T08:09:51.839Z,2956.00
2018-06-04T08:10:51.755Z,2972.00
2018-06-04T08:11:51.685Z,2076.00
2018-06-04T08:12:51.627Z,2968.00
2018-06-04T08:13:51.565Z,2928.00
2018-06-04T08:14:51.476Z,2828.00
2018-06-04T08:15:51.407Z,3008.00
2018-06-04T08:16:51.336Z,2180.00
2018-06-04T08:17:51.273Z,2992.00
2018-06-04T08:18:51.204Z,3072.00
2018-06-04T08:19:51.130Z,3004.00
2018-06-04T08:20:51.064Z,3268.00
2018-06-04T08:21:50.992Z,3336.00
2018-06-04T08:22:50.929Z,3232.00
2018-06-04T08:23:50.912Z,3372.00
2018-06-04T08:24:50.785Z,3448.00
2018-06-04T08:25:50.716Z,3448.00
2018-06-04T08:26:50.646Z,3484.00
2018-06-04T08:27:50.577Z,3476.00
2018-06-04T08:28:50.512Z,3456.00
2018-06-04T08:29:50.439Z,3408.00
2018-06-04T08:30:50.372Z,3416.00
2018-06-04T08:31:50.310Z,3472.00
2018-06-04T08:32:50.237Z,3576.00
2018-06-04T08:33:50.164Z,3592.00
2018-06-04T08:34:50.097Z,3624.00
2018-06-04T08:35:50.033Z,3700.00
2018-06-04T08:36:49.958Z,3868.00
2018-06-04T08:37:49.890Z,4008.00
2018-06-04T08:38:49.826Z,4188.00
2018-06-04T08:39:49.753Z,4368.00
2018-06-04T08:40:49.682Z,4636.00
2018-06-04T08:41:49.616Z,4708.00
2018-06-04T08:42:49.553Z,5040.00
2018-06-04T08:43:49.480Z,5040.00
2018-06-04T08:44:49.410Z,5044.00
2018-06-04T08:45:49.386Z,5296.00
2018-06-04T08:46:49.288Z,5516.00
2018-06-04T08:47:49.207Z,5476.00
2018-06-04T08:48:49.135Z,5344.00
2018-06-04T08:49:49.069Z,5212.00
2018-06-04T08:50:49.000Z,5180.00
2018-06-04T08:51:48.930Z,5000.00
2018-06-04T08:52:48.865Z,4704.00
2018-06-04T08:53:48.800Z,4968.00
2018-06-04T08:54:48.728Z,5024.00
2018-06-04T08:55:48.658Z,4896.00
2018-06-04T08:56:48.590Z,4832.00
2018-06-04T08:57:48.523Z,4984.00
2018-06-04T08:58:48.456Z,5276.00
2018-06-04T08:59:48.383Z,5968.00
2018-06-04T09:00:48.317Z,6032.00
2018-06-04T09:01:48.249Z,5572.00
2018-06-04T09:02:48.187Z,5284.00
2018-06-04T09:03:48.120Z,5256.00
2018-06-04T09:04:48.046Z,5376.00
2018-06-04T09:05:47.978Z,5488.00
2018-06-04T09:06:47.909Z,5848.00
2018-06-04T09:07:47.840Z,6064.00
2018-06-04T09:08:47.772Z,6052.00
2018-06-04T09:09:47.732Z,5940.00
2018-06-04T09:10:47.638Z,5940.00
2018-06-04T09:11:47.573Z,5936.00
2018-06-04T09:12:47.505Z,5196.00
2018-06-04T09:13:47.433Z,5108.00
2018-06-04T09:14:47.369Z,4944.00
2018-06-04T09:15:47.377Z,4912.00
2018-06-04T09:16:47.229Z,4496.00
2018-06-04T09:17:47.169Z,4680.00
2018-06-04T09:18:47.095Z,4496.00
2018-06-04T09:19:47.025Z,4292.00
2018-06-04T09:20:46.965Z,4112.00
2018-06-04T09:21:46.919Z,4236.00
2018-06-04T09:22:46.822Z,4884.00
2018-06-04T09:23:46.756Z,4836.00
2018-06-04T09:24:46.698Z,4676.00
2018-06-04T09:25:46.621Z,4684.00
2018-06-04T09:26:46.550Z,4672.00
2018-06-04T09:27:46.485Z,4768.00
2018-06-04T09:28:46.418Z,4860.00
2018-06-04T09:29:46.349Z,5072.00
2018-06-04T09:30:46.282Z,5204.00
2018-06-04T09:31:46.214Z,5424.00
2018-06-04T09:32:46.160Z,5476.00
2018-06-04T09:33:46.080Z,5464.00
2018-06-04T09:34:46.014Z,5288.00
2018-06-04T09:35:45.942Z,5056.00
2018-06-04T09:36:45.876Z,4864.00
2018-06-04T09:37:45.815Z,4676.00
2018-06-04T09:38:45.746Z,4540.00
2018-06-04T09:39:45.679Z,4456.00
2018-06-04T09:40:45.605Z,4392.00
2018-06-04T09:41:45.537Z,4380.00
2018-06-04T09:42:45.470Z,4380.00
2018-06-04T09:43:45.405Z,4284.00
2018-06-04T09:44:45.335Z,3888.00
2018-06-04T09:45:45.267Z,3912.00
2018-06-04T09:46:45.200Z,4356.00
2018-06-04T09:47:45.132Z,4532.00
2018-06-04T09:48:45.063Z,4896.00
2018-06-04T09:49:44.997Z,5112.00
2018-06-04T09:50:44.929Z,5448.00
2018-06-04T09:51:44.863Z,5700.00
2018-06-04T09:52:44.793Z,5904.00
2018-06-04T09:53:44.739Z,6036.00
2018-06-04T09:54:44.670Z,6308.00
2018-06-04T09:55:44.592Z,6500.00
2018-06-04T09:56:44.527Z,6280.00
2018-06-04T09:57:44.457Z,6056.00
2018-06-04T09:58:44.389Z,6180.00
2018-06-04T09:59:44.321Z,6228.00
2018-06-04T10:00:44.288Z,6240.00
2018-06-04T10:01:44.186Z,6376.00
2018-06-04T10:02:44.120Z,6388.00
2018-06-04T10:03:44.052Z,6492.00
2018-06-04T10:04:44.045Z,6380.00
2018-06-04T10:05:43.931Z,6144.00
2018-06-04T10:06:43.849Z,5916.00
2018-06-04T10:07:43.782Z,5652.00
2018-06-04T10:08:43.713Z,5500.00
2018-06-04T10:09:43.648Z,5336.00
2018-06-04T10:10:43.580Z,5288.00
2018-06-04T10:11:43.512Z,5332.00
2018-06-04T10:12:43.445Z,5420.00
2018-06-04T10:13:43.379Z,5448.00
2018-06-04T10:14:43.312Z,5256.00
2018-06-04T10:15:43.249Z,5008.00
2018-06-04T10:16:43.179Z,4896.00
2018-06-04T10:17:43.110Z,4844.00
2018-06-04T10:18:43.043Z,4780.00
2018-06-04T10:19:42.974Z,4792.00
2018-06-04T10:20:42.907Z,4856.00
2018-06-04T10:21:42.839Z,4852.00
2018-06-04T10:22:42.773Z,4824.00
2018-06-04T10:23:42.705Z,4804.00
2018-06-04T10:24:42.639Z,4836.00
2018-06-04T10:25:42.574Z,4860.00
2018-06-04T10:26:42.507Z,4876.00
2018-06-04T10:27:42.437Z,4964.00
2018-06-04T10:28:42.372Z,5100.00
2018-06-04T10:29:42.303Z,5332.00
2018-06-04T10:30:42.262Z,5464.00
2018-06-04T10:31:42.168Z,5456.00
2018-06-04T10:32:42.101Z,5380.00
2018-06-04T10:33:42.068Z,5328.00
2018-06-04T10:34:41.966Z,5332.00
2018-06-04T10:35:41.914Z,5364.00
2018-06-04T10:36:41.838Z,5460.00
2018-06-04T10:37:41.765Z,5476.00
2018-06-04T10:38:41.697Z,5516.00
2018-06-04T10:39:41.629Z,5560.00
2018-06-04T10:40:41.566Z,5496.00
2018-06-04T10:41:41.497Z,5472.00
2018-06-04T10:42:41.431Z,5544.00
2018-06-04T10:43:41.366Z,5608.00
2018-06-04T10:44:41.323Z,5656.00
2018-06-04T10:45:41.232Z,5756.00
2018-06-04T10:46:41.176Z,5796.00
2018-06-04T10:47:41.094Z,5724.00
2018-06-04T10:48:41.031Z,5688.00
2018-06-04T10:49:40.960Z,5652.00
2018-06-04T10:50:40.891Z,5656.00
2018-06-04T10:51:40.827Z,5676.00
2018-06-04T10:52:40.759Z,5772.00
2018-06-04T10:53:40.693Z,5764.00
2018-06-04T10:54:40.637Z,5788.00
2018-06-04T10:55:40.558Z,5732.00
2018-06-04T10:56:40.492Z,5656.00
2018-06-04T10:57:40.425Z,5696.00
2018-06-04T10:58:40.359Z,5776.00
2018-06-04T10:59:40.290Z,5744.00
2018-06-04T11:00:40.226Z,5712.00
2018-06-04T11:01:40.159Z,5656.00
2018-06-04T11:02:40.093Z,5700.00
2018-06-04T11:03:40.028Z,5804.00
2018-06-04T11:04:39.960Z,5884.00
2018-06-04T11:05:39.892Z,5928.00
2018-06-04T11:06:39.826Z,5920.00
2018-06-04T11:07:39.758Z,5900.00
2018-06-04T11:08:39.690Z,5880.00
2018-06-04T11:09:39.629Z,5860.00
2018-06-04T11:10:39.560Z,5892.00
2018-06-04T11:11:39.495Z,5980.00
2018-06-04T11:12:39.425Z,6128.00
2018-06-04T11:13:39.358Z,6232.00
2018-06-04T11:14:39.294Z,6380.00
2018-06-04T11:15:39.228Z,6504.00
2018-06-04T11:16:39.163Z,6536.00
2018-06-04T11:17:39.098Z,6508.00
2018-06-04T11:18:39.028Z,6540.00
2018-06-04T11:19:38.984Z,6616.00
2018-06-04T11:20:38.893Z,6492.00
2018-06-04T11:21:38.827Z,6768.00
2018-06-04T11:22:38.761Z,6704.00
2018-06-04T11:23:38.695Z,6908.00
2018-06-04T11:24:38.683Z,6972.00
2018-06-04T11:25:38.620Z,7060.00
2018-06-04T11:26:38.496Z,5564.00
2018-06-04T11:27:38.428Z,5684.00
2018-06-04T11:28:38.361Z,5612.00
2018-06-04T11:29:38.349Z,5260.00
2018-06-04T11:30:38.230Z,5012.00
2018-06-04T11:31:38.219Z,5052.00
2018-06-04T11:32:38.100Z,5120.00
2018-06-04T11:33:38.043Z,5272.00
2018-06-04T11:34:37.966Z,5624.00
2018-06-04T11:35:37.901Z,5876.00
2018-06-04T11:36:37.833Z,6132.00
2018-06-04T11:37:37.776Z,6344.00
2018-06-04T11:38:37.703Z,6516.00
2018-06-04T11:39:37.635Z,6624.00
2018-06-04T11:40:37.570Z,6732.00
2018-06-04T11:41:37.502Z,6556.00
2018-06-04T11:42:37.437Z,6128.00
2018-06-04T11:43:37.368Z,6004.00
2018-06-04T11:44:37.314Z,6076.00
2018-06-04T11:45:37.238Z,5932.00
2018-06-04T11:46:37.173Z,5896.00
2018-06-04T11:47:37.104Z,6120.00
2018-06-04T11:48:37.041Z,6420.00
2018-06-04T11:49:36.973Z,6084.00
2018-06-04T11:50:36.903Z,6092.00
2018-06-04T11:51:36.838Z,5676.00
2018-06-04T11:52:36.780Z,5784.00
2018-06-04T11:53:36.725Z,6188.00
2018-06-04T11:54:36.637Z,6520.00
2018-06-04T11:55:36.604Z,7692.00
2018-06-04T11:56:36.553Z,8252.00
2018-06-04T11:57:36.438Z,8908.00
2018-06-04T11:58:36.374Z,9244.00
2018-06-04T11:59:36.309Z,9292.00
2018-06-04T12:00:36.277Z,9492.00
2018-06-04T12:01:36.175Z,9808.00
2018-06-04T12:02:36.110Z,9932.00
2018-06-04T12:03:36.043Z,9808.00
2018-06-04T12:04:35.975Z,9716.00
2018-06-04T12:05:35.907Z,9536.00
2018-06-04T12:06:35.853Z,9300.00
2018-06-04T12:07:35.776Z,9328.00
2018-06-04T12:08:35.710Z,9016.00
2018-06-04T12:09:35.648Z,8836.00
2018-06-04T12:10:35.578Z,8776.00
2018-06-04T12:11:35.541Z,8620.00
2018-06-04T12:12:35.445Z,8388.00
2018-06-04T12:13:35.381Z,8292.00
2018-06-04T12:14:35.316Z,8208.00
2018-06-04T12:15:35.262Z,8168.00
2018-06-04T12:16:35.185Z,8084.00
2018-06-04T12:17:35.120Z,8088.00
2018-06-04T12:18:35.057Z,8108.00
2018-06-04T12:19:34.985Z,8148.00
2018-06-04T12:20:34.932Z,8184.00
2018-06-04T12:21:34.855Z,8228.00
2018-06-04T12:22:34.790Z,8324.00
2018-06-04T12:23:34.739Z,8332.00